Ashburn, Georgia
Current Conditions -  °F | °C
As of 1:55 AM on Sunday 26 Oct 2014 (Local Time) from KCKF Reporting Station
Clear Clear  
Wind Chill: 53°   Ceiling: Unl
Heat Index: 53°   Visibility: 10mi
Dew Point: 50°   Wind: 0mph
Humidity: 90%   Direction: NA
Pressure: 30.02"   Gusts: NA
Location:  31.71°N, 83.65°W
Report Text: KCKF 260555Z AUTO 00000KT 10SM CLR 12/10 A3002 RMK AO2 T01160100 10162 20115 402580060
Loading
Personal Weather Stations






























Interactive Weather Map
Tropical Storm Tracking
New forecast layout! Learn more

10-Day Weather Forecast

Advertisements
Track Severe Weather on mobile